Time;durP1;ratioP1;P1;durP2;ratioP2;P2;SDS_P1;SDS_P2;PMS_P1;PMS_P2;Temp;Humidity;BMP_temperature;BMP_pressure;BME280_temperature;BME280_humidity;BME280_pressure;Samples;Min_cycle;Max_cycle;Signal;HPM_P1;HPM_P2
2021/04/10 00:01:17;;;;;;;12.07;3.30;;;5.50;94.50;;;;;;5074497;28;20399;-77
2021/04/10 00:03:43;;;;;;;8.77;2.72;;;5.50;94.50;;;;;;5086075;28;20028;-77
2021/04/10 00:06:09;;;;;;;10.02;2.75;;;5.60;94.60;;;;;;5070025;28;20036;-77
2021/04/10 00:08:35;;;;;;;9.57;2.90;;;5.50;94.60;;;;;;5079657;28;20541;-77
2021/04/10 00:11:01;;;;;;;10.10;2.78;;;5.50;94.60;;;;;;5082737;28;20057;-77
2021/04/10 00:13:27;;;;;;;10.18;3.15;;;5.50;94.60;;;;;;5072558;28;20040;-77
2021/04/10 00:15:53;;;;;;;10.27;2.40;;;5.50;94.70;;;;;;5067877;28;20214;-77
2021/04/10 00:18:19;;;;;;;11.48;2.33;;;5.50;94.60;;;;;;5078314;28;20496;-77
2021/04/10 00:20:45;;;;;;;13.45;2.72;;;5.50;94.70;;;;;;5071609;28;20048;-77
2021/04/10 00:23:11;;;;;;;9.73;2.80;;;5.50;94.60;;;;;;5077230;28;20025;-77
2021/04/10 00:25:37;;;;;;;10.68;2.72;;;5.50;94.90;;;;;;5074937;28;20048;-77
2021/04/10 00:28:03;;;;;;;10.82;3.53;;;5.40;94.60;;;;;;5082778;28;20120;-77
2021/04/10 00:30:29;;;;;;;9.60;2.45;;;5.50;94.60;;;;;;5070340;28;20117;-77
2021/04/10 00:32:55;;;;;;;12.27;2.53;;;5.40;94.70;;;;;;5076396;28;20036;-77
2021/04/10 00:35:21;;;;;;;9.63;2.53;;;5.40;94.70;;;;;;5074781;28;20033;-77
2021/04/10 00:37:47;;;;;;;12.23;3.17;;;5.40;94.70;;;;;;5074420;28;20421;-77
2021/04/10 00:40:15;;;;;;;11.75;3.15;;;5.40;94.70;;;;;;5070762;28;20033;-77
2021/04/10 00:42:41;;;;;;;12.10;2.60;;;5.40;94.70;;;;;;5070618;28;20029;-77
2021/04/10 00:45:09;;;;;;;11.20;2.63;;;5.40;94.60;;;;;;5072850;28;20081;-77
2021/04/10 00:47:35;;;;;;;11.57;3.45;;;5.40;94.70;;;;;;5070750;28;20075;-77
2021/04/10 00:50:01;;;;;;;8.95;2.63;;;5.40;94.70;;;;;;5073702;28;20040;-77
2021/04/10 00:52:29;;;;;;;15.65;2.83;;;5.40;94.70;;;;;;5068549;28;20036;-77
2021/04/10 00:54:55;;;;;;;9.60;2.30;;;5.40;94.70;;;;;;5079945;28;20070;-77
2021/04/10 00:57:23;;;;;;;8.70;2.13;;;5.40;94.80;;;;;;5069662;28;20033;-77
2021/04/10 00:59:49;;;;;;;10.50;2.67;;;5.30;94.70;;;;;;5077331;28;20041;-77
2021/04/10 01:02:15;;;;;;;9.68;2.95;;;5.40;94.70;;;;;;5067108;28;20510;-77
2021/04/10 01:04:41;;;;;;;14.15;3.13;;;5.30;94.70;;;;;;5079309;28;20074;-77
2021/04/10 01:07:07;;;;;;;10.27;2.40;;;5.30;94.70;;;;;;5067371;28;20028;-77
2021/04/10 01:09:35;;;;;;;11.30;2.25;;;5.30;94.70;;;;;;5070551;28;20443;-77
2021/04/10 01:12:21;;;;;;;13.02;2.75;;;5.30;94.80;;;;;;5069443;28;20468;-77
2021/04/10 01:15:01;;;;;;;14.38;3.00;;;5.30;94.80;;;;;;5075918;28;20087;-77
2021/04/10 01:17:36;;;;;;;10.18;2.83;;;5.30;94.90;;;;;;5068976;28;20457;-77
2021/04/10 01:20:21;;;;;;;13.48;3.40;;;5.30;94.90;;;;;;5075714;28;20059;-77
2021/04/10 01:23:02;;;;;;;14.32;3.20;;;5.30;94.90;;;;;;5067592;28;20064;-77
2021/04/10 01:25:31;;;;;;;11.27;3.22;;;5.30;95.00;;;;;;5070790;28;20139;-77
2021/04/10 01:27:58;;;;;;;9.68;2.95;;;5.30;95.00;;;;;;5068844;28;20062;-77
2021/04/10 01:30:26;;;;;;;8.13;2.47;;;5.30;95.30;;;;;;5071794;28;20055;-77
2021/04/10 01:33:10;;;;;;;11.38;3.90;;;5.30;95.10;;;;;;5067718;28;20388;-77
2021/04/10 01:35:43;;;;;;;11.45;3.45;;;5.30;95.10;;;;;;5074943;28;20089;-77
2021/04/10 01:38:13;;;;;;;9.38;3.00;;;5.30;95.20;;;;;;5066254;28;20068;-77
2021/04/10 01:40:40;;;;;;;10.35;2.95;;;5.30;95.20;;;;;;5081977;28;20487;-77
2021/04/10 01:43:07;;;;;;;13.60;3.17;;;5.20;95.30;;;;;;5068274;28;20077;-77
2021/04/10 01:45:34;;;;;;;14.07;3.33;;;5.20;95.30;;;;;;5072869;28;20431;-77
2021/04/10 01:48:06;;;;;;;8.05;2.78;;;5.20;95.30;;;;;;5072403;28;20465;-77
2021/04/10 01:50:34;;;;;;;12.85;3.90;;;5.20;95.30;;;;;;5067711;28;20457;-77
2021/04/10 01:53:01;;;;;;;8.48;2.50;;;5.20;95.30;;;;;;5075986;28;20044;-77
2021/04/10 01:55:28;;;;;;;15.48;3.80;;;5.20;95.30;;;;;;5068020;28;20036;-77
2021/04/10 01:57:55;;;;;;;11.27;2.65;;;5.20;95.30;;;;;;5072176;28;20150;-77
2021/04/10 02:00:23;;;;;;;11.80;3.08;;;5.20;95.30;;;;;;5067678;28;20028;-77
2021/04/10 02:02:51;;;;;;;10.20;3.28;;;5.20;95.30;;;;;;5076015;28;20469;-77
2021/04/10 02:05:18;;;;;;;8.68;2.88;;;5.20;95.40;;;;;;5069259;28;20032;-77
2021/04/10 02:07:47;;;;;;;11.52;3.25;;;5.20;95.30;;;;;;5075403;28;20032;-77
2021/04/10 02:10:19;;;;;;;12.13;2.85;;;5.20;95.30;;;;;;5062983;28;20716;-77
2021/04/10 02:12:49;;;;;;;9.55;2.67;;;5.20;95.20;;;;;;5070821;28;20473;-77
2021/04/10 02:15:15;;;;;;;9.90;2.83;;;5.20;95.40;;;;;;5065630;28;20376;-77
2021/04/10 02:17:41;;;;;;;11.88;2.85;;;5.20;95.30;;;;;;5076209;28;20063;-77
2021/04/10 02:20:12;;;;;;;10.38;2.97;;;5.20;95.30;;;;;;5069472;28;20032;-77
2021/04/10 02:22:39;;;;;;;12.63;3.53;;;5.20;95.30;;;;;;5080648;28;20040;-77
2021/04/10 02:25:06;;;;;;;15.63;4.00;;;5.10;95.30;;;;;;5062869;28;20045;-77
2021/04/10 02:27:32;;;;;;;14.57;3.90;;;5.10;95.30;;;;;;5071458;28;20056;-77
2021/04/10 02:29:59;;;;;;;12.18;3.20;;;5.10;95.40;;;;;;5064053;28;20060;-77
2021/04/10 02:32:39;;;;;;;11.45;3.28;;;5.10;95.40;;;;;;5070057;28;20033;-77
2021/04/10 02:35:24;;;;;;;17.05;4.15;;;5.10;95.40;;;;;;5065468;28;20394;-77
2021/04/10 02:37:50;;;;;;;;;;;5.10;95.40;;;;;;5073817;28;20119;-76
2021/04/10 02:40:20;;;;;;;11.38;3.63;;;5.00;95.20;;;;;;5067727;28;20284;-76
2021/04/10 02:42:47;;;;;;;13.07;3.90;;;5.00;95.50;;;;;;5077003;28;20044;-77
2021/04/10 02:45:16;;;;;;;20.67;3.50;;;5.00;95.50;;;;;;5075392;28;20040;-77
2021/04/10 02:47:44;;;;;;;12.10;3.28;;;5.00;95.60;;;;;;5087055;28;20066;-77
2021/04/10 02:50:12;;;;;;;12.82;3.50;;;5.00;95.50;;;;;;5077065;28;20102;-77
2021/04/10 02:52:41;;;;;;;11.38;3.47;;;5.00;95.50;;;;;;5076266;28;20106;-77
2021/04/10 02:55:09;;;;;;;14.50;3.75;;;5.00;95.50;;;;;;5085090;28;20109;-77
2021/04/10 02:57:37;;;;;;;15.85;4.15;;;5.00;95.50;;;;;;5072418;28;20429;-77
2021/04/10 03:00:07;;;;;;;8.48;2.85;;;5.00;95.80;;;;;;5076884;28;20048;-77
2021/04/10 03:02:36;;;;;;;10.75;3.28;;;5.00;95.60;;;;;;5072987;28;20037;-77
2021/04/10 03:05:03;;;;;;;11.30;2.65;;;5.00;95.60;;;;;;5084169;28;20032;-77
2021/04/10 03:07:29;;;;;;;10.70;2.72;;;5.00;95.60;;;;;;5079249;28;20048;-77
2021/04/10 03:09:55;;;;;;;10.25;3.42;;;5.00;95.60;;;;;;5071877;28;20102;-77
2021/04/10 03:12:22;;;;;;;13.15;3.38;;;5.00;95.60;;;;;;5067739;28;20082;-77
2021/04/10 03:14:50;;;;;;;14.35;3.17;;;5.00;95.60;;;;;;5075869;28;20041;-77
2021/04/10 03:17:20;;;;;;;11.40;2.85;;;4.90;95.50;;;;;;5071368;28;20404;-77
2021/04/10 03:19:47;;;;;;;13.77;3.00;;;4.90;95.60;;;;;;5078433;28;20041;-77
2021/04/10 03:22:15;;;;;;;11.45;2.90;;;4.90;95.70;;;;;;5070540;28;20032;-77
2021/04/10 03:24:41;;;;;;;16.92;3.50;;;5.00;95.60;;;;;;5082109;28;20048;-77
2021/04/10 03:27:07;;;;;;;13.45;3.67;;;4.90;95.50;;;;;;5069083;28;20082;-77
2021/04/10 03:29:35;;;;;;;13.77;3.80;;;4.90;95.50;;;;;;5074550;28;20076;-77
2021/04/10 03:32:01;;;;;;;14.02;3.47;;;4.90;95.50;;;;;;5081294;28;20040;-77
2021/04/10 03:34:28;;;;;;;9.68;2.70;;;5.00;95.50;;;;;;5067912;28;20045;-77
2021/04/10 03:36:54;;;;;;;11.07;2.88;;;4.90;95.50;;;;;;5075436;28;20036;-77
2021/04/10 03:39:20;;;;;;;10.15;3.05;;;4.90;95.50;;;;;;5074591;28;20040;-77
2021/04/10 03:41:46;;;;;;;10.65;2.85;;;4.90;95.50;;;;;;5077622;28;20480;-77
2021/04/10 03:44:12;;;;;;;11.52;2.72;;;4.90;95.50;;;;;;5069299;28;20032;-77
2021/04/10 03:46:38;;;;;;;11.73;2.55;;;4.90;95.40;;;;;;5074635;28;20598;-77
2021/04/10 03:49:05;;;;;;;9.63;2.58;;;4.90;95.50;;;;;;5068484;28;20558;-77
2021/04/10 03:51:31;;;;;;;11.30;3.40;;;4.90;95.40;;;;;;5085425;28;20083;-77
2021/04/10 03:53:57;;;;;;;15.73;3.55;;;4.90;95.40;;;;;;5071129;28;20037;-77
2021/04/10 03:56:23;;;;;;;9.82;2.65;;;4.90;95.40;;;;;;5078949;28;20049;-76
2021/04/10 03:58:49;;;;;;;13.32;3.10;;;4.90;95.30;;;;;;5070196;28;20048;-77
2021/04/10 04:01:15;;;;;;;12.18;2.50;;;4.90;95.30;;;;;;5083799;28;20052;-77
2021/04/10 04:03:41;;;;;;;12.50;3.15;;;4.80;95.30;;;;;;5070566;28;20499;-77
2021/04/10 04:06:06;;;;;;;11.23;3.42;;;4.80;95.30;;;;;;5087897;28;20508;-77
2021/04/10 04:08:33;;;;;;;10.00;3.13;;;4.80;95.30;;;;;;5073428;28;20079;-77
2021/04/10 04:10:59;;;;;;;12.88;3.00;;;4.90;95.30;;;;;;5074190;28;20056;-77
2021/04/10 04:13:24;;;;;;;12.25;2.90;;;4.80;95.30;;;;;;5073271;28;20033;-77
2021/04/10 04:15:50;;;;;;;13.57;3.20;;;4.80;95.30;;;;;;5075821;28;20053;-77
2021/04/10 04:18:16;;;;;;;13.50;3.47;;;4.80;95.20;;;;;;5082336;28;20058;-77
2021/04/10 04:20:42;;;;;;;14.13;3.25;;;4.80;95.30;;;;;;5080133;28;20056;-77
2021/04/10 04:23:08;;;;;;;14.23;3.90;;;4.80;95.30;;;;;;5075783;28;20041;-77
2021/04/10 04:25:34;;;;;;;16.33;3.92;;;4.80;95.30;;;;;;5078470;28;20054;-77
2021/04/10 04:28:02;;;;;;;13.00;3.80;;;4.80;95.30;;;;;;5071495;28;20091;-77
2021/04/10 04:30:28;;;;;;;12.63;3.78;;;4.80;95.30;;;;;;5068994;28;20039;-77
2021/04/10 04:32:54;;;;;;;10.55;4.35;;;4.80;95.30;;;;;;5087053;28;20906;-77
2021/04/10 04:35:20;;;;;;;13.52;5.45;;;4.80;95.30;;;;;;5065951;28;20111;-77
2021/04/10 04:37:46;;;;;;;17.05;3.80;;;4.80;95.40;;;;;;5071827;28;20060;-77
2021/04/10 04:40:13;;;;;;;13.02;3.90;;;4.80;95.40;;;;;;5074174;28;20041;-77
2021/04/10 04:42:38;;;;;;;13.68;4.40;;;4.80;95.40;;;;;;5082011;28;20111;-77
2021/04/10 04:45:06;;;;;;;14.23;3.55;;;4.80;95.40;;;;;;5066984;28;20157;-77
2021/04/10 04:47:32;;;;;;;18.20;4.97;;;4.80;95.40;;;;;;5071252;28;20504;-77
2021/04/10 04:49:58;;;;;;;9.30;3.83;;;4.80;95.40;;;;;;5074086;28;20237;-77
2021/04/10 04:52:23;;;;;;;17.42;4.53;;;4.80;95.50;;;;;;5076503;28;20070;-77
2021/04/10 04:54:49;;;;;;;11.63;4.38;;;4.70;95.40;;;;;;5072174;28;20068;-77
2021/04/10 04:57:15;;;;;;;11.25;4.50;;;4.80;95.50;;;;;;5067554;28;20028;-77
2021/04/10 04:59:41;;;;;;;17.77;5.50;;;4.80;95.50;;;;;;5075094;28;20051;-77
2021/04/10 05:02:07;;;;;;;16.50;5.05;;;4.70;95.50;;;;;;5069837;28;20097;-77
2021/04/10 05:04:32;;;;;;;11.70;4.75;;;4.70;95.50;;;;;;5075790;28;20032;-77
2021/04/10 05:06:58;;;;;;;19.10;6.22;;;4.70;95.50;;;;;;5069061;28;20040;-77
2021/04/10 05:09:24;;;;;;;16.27;6.03;;;4.70;95.50;;;;;;5087650;28;20059;-77
2021/04/10 05:11:50;;;;;;;17.42;6.25;;;4.70;95.60;;;;;;5066482;28;20090;-77
2021/04/10 05:14:16;;;;;;;15.35;5.75;;;4.80;95.60;;;;;;5077708;28;20051;-77
2021/04/10 05:16:42;;;;;;;20.38;6.75;;;4.70;95.60;;;;;;5067814;28;20041;-77
2021/04/10 05:19:08;;;;;;;17.75;5.97;;;4.70;95.60;;;;;;5073143;28;20044;-77
2021/04/10 05:21:34;;;;;;;16.55;6.93;;;4.70;95.50;;;;;;5078017;28;20245;-77
2021/04/10 05:24:00;;;;;;;18.83;7.03;;;4.70;95.50;;;;;;5075736;28;20186;-77
2021/04/10 05:26:26;;;;;;;18.48;7.40;;;4.70;95.50;;;;;;5080906;28;20036;-77
2021/04/10 05:28:52;;;;;;;20.20;8.35;;;4.70;95.50;;;;;;5070335;28;20067;-77
2021/04/10 05:31:20;;;;;;;16.15;7.65;;;4.70;95.60;;;;;;5072176;28;20043;-77
2021/04/10 05:33:45;;;;;;;20.92;8.50;;;4.70;95.70;;;;;;5069862;28;20688;-77
2021/04/10 05:36:11;;;;;;;20.77;7.78;;;4.70;95.60;;;;;;5083080;28;20101;-77
2021/04/10 05:38:37;;;;;;;18.45;7.65;;;4.70;95.60;;;;;;5067940;28;20048;-77
2021/04/10 05:41:03;;;;;;;19.08;7.07;;;4.70;95.60;;;;;;5073380;28;20086;-77
2021/04/10 05:43:29;;;;;;;18.65;6.60;;;4.70;95.60;;;;;;5065952;28;20037;-77
2021/04/10 05:45:55;;;;;;;15.70;6.60;;;4.80;95.60;;;;;;5076063;28;20044;-77
2021/04/10 05:48:21;;;;;;;16.63;6.95;;;4.80;95.60;;;;;;5065387;28;20041;-77
2021/04/10 05:50:46;;;;;;;17.98;6.68;;;4.80;95.60;;;;;;5075539;28;20389;-77
2021/04/10 05:53:12;;;;;;;22.83;7.05;;;4.80;95.60;;;;;;5070179;28;20040;-76
2021/04/10 05:55:38;;;;;;;20.45;6.40;;;4.80;95.60;;;;;;5077728;28;20101;-77
2021/04/10 05:58:04;;;;;;;20.45;7.50;;;4.80;95.60;;;;;;5068444;28;20052;-76
2021/04/10 06:00:29;;;;;;;14.73;5.82;;;4.90;95.70;;;;;;5076527;28;20465;-76
2021/04/10 06:02:56;;;;;;;26.92;13.05;;;4.90;95.70;;;;;;5071393;28;20480;-76
2021/04/10 06:05:22;;;;;;;15.48;5.75;;;5.00;95.70;;;;;;5075282;28;20135;-76
2021/04/10 06:07:49;;;;;;;18.10;6.43;;;4.90;95.60;;;;;;5079694;28;20119;-77
2021/04/10 06:10:15;;;;;;;16.65;5.07;;;5.00;95.50;;;;;;5076540;28;20533;-77
2021/04/10 06:12:42;;;;;;;16.23;6.00;;;5.00;95.40;;;;;;5073760;28;20045;-80
2021/04/10 06:15:10;;;;;;;13.75;5.10;;;5.00;95.50;;;;;;5076762;28;20129;-80
2021/04/10 06:17:36;;;;;;;13.77;5.20;;;5.10;95.40;;;;;;5079629;28;20480;-80
2021/04/10 06:20:04;;;;;;;14.73;5.53;;;5.10;95.50;;;;;;5082971;28;20382;-80
2021/04/10 06:22:31;;;;;;;11.55;4.85;;;5.10;95.30;;;;;;5082420;28;20380;-80
2021/04/10 06:24:57;;;;;;;14.52;4.13;;;5.20;95.40;;;;;;5079029;28;20481;-80
2021/04/10 06:27:23;;;;;;;17.00;4.40;;;5.20;95.30;;;;;;5083855;28;20036;-80
2021/04/10 06:29:48;;;;;;;12.20;5.20;;;5.20;95.20;;;;;;5087776;28;20106;-80
2021/04/10 06:32:14;;;;;;;11.70;5.25;;;5.30;95.20;;;;;;5089902;28;20081;-80
2021/04/10 06:34:40;;;;;;;11.95;4.60;;;5.30;95.20;;;;;;5082091;28;20037;-80
2021/04/10 06:37:06;;;;;;;10.68;3.92;;;5.40;95.30;;;;;;5083675;28;20542;-80
2021/04/10 06:39:31;;;;;;;15.00;3.80;;;5.40;95.00;;;;;;5078298;28;20036;-80
2021/04/10 06:41:58;;;;;;;13.48;3.42;;;5.40;94.70;;;;;;5093248;28;20063;-80
2021/04/10 06:44:24;;;;;;;10.80;3.03;;;5.50;95.00;;;;;;5083154;28;20044;-80
2021/04/10 06:46:52;;;;;;;9.95;3.33;;;5.40;94.60;;;;;;5080167;28;20037;-80
2021/04/10 06:49:19;;;;;;;10.88;3.80;;;5.50;94.60;;;;;;5087076;28;20032;-80
2021/04/10 06:51:45;;;;;;;12.43;3.20;;;5.60;94.60;;;;;;5082730;28;20044;-80
2021/04/10 06:54:14;;;;;;;15.43;3.22;;;5.60;94.40;;;;;;5092251;28;20131;-80
2021/04/10 06:56:54;;;;;;;12.40;3.17;;;5.70;94.40;;;;;;5079739;28;20461;-80
2021/04/10 06:59:50;;;;;;;14.60;2.83;;;5.70;94.00;;;;;;5080254;28;20451;-80
2021/04/10 07:02:15;;;;;;;;;;;5.70;93.60;;;;;;5081903;28;20036;-80
2021/04/10 07:04:42;;;;;;;10.75;2.40;;;5.70;93.30;;;;;;5090753;28;19923;-80
2021/04/10 07:07:09;;;;;;;9.77;2.53;;;5.80;93.90;;;;;;5082815;28;20036;-80
2021/04/10 07:09:37;;;;;;;9.05;2.08;;;5.90;93.40;;;;;;5080507;28;20063;-80
2021/04/10 07:12:07;;;;;;;15.40;5.80;;;5.80;93.20;;;;;;5075559;28;20090;-80
2021/04/10 07:14:33;;;;;;;8.77;2.35;;;5.80;92.60;;;;;;5083916;28;20032;-80
2021/04/10 07:16:59;;;;;;;8.65;2.55;;;5.90;92.60;;;;;;5073090;28;20052;-80
2021/04/10 07:19:26;;;;;;;13.30;2.78;;;5.90;92.50;;;;;;5087765;28;20054;-80
2021/04/10 07:22:15;;;;;;;11.60;2.42;;;6.00;92.40;;;;;;5080849;28;20075;-81
2021/04/10 07:24:45;;;;;;;14.35;2.92;;;6.00;91.40;;;;;;5088866;28;20492;-81
2021/04/10 07:27:15;;;;;;;11.27;2.33;;;6.10;91.30;;;;;;5083100;28;20117;-81
2021/04/10 07:29:44;;;;;;;9.15;2.28;;;6.20;91.30;;;;;;5085689;28;20127;-79
2021/04/10 07:32:35;;;;;;;12.30;1.88;;;6.20;90.40;;;;;;5081501;28;20071;-79
2021/04/10 07:35:07;;;;;;;7.60;1.88;;;6.30;88.20;;;;;;5090027;28;20036;-81
2021/04/10 07:37:35;;;;;;;12.95;2.28;;;6.40;89.10;;;;;;5078612;28;20029;-81
2021/04/10 07:40:03;;;;;;;12.43;2.28;;;6.50;88.80;;;;;;5091280;28;20041;-81
2021/04/10 07:42:29;;;;;;;11.00;2.22;;;6.60;89.10;;;;;;5090064;28;20466;-81
2021/04/10 07:44:56;;;;;;;9.98;2.58;;;6.70;87.90;;;;;;5090174;28;20044;-81
2021/04/10 07:47:38;;;;;;;13.65;3.05;;;6.90;87.50;;;;;;5079831;28;20036;-80
2021/04/10 07:50:26;;;;;;;9.00;1.90;;;6.90;85.70;;;;;;5087033;28;20040;-80
2021/04/10 07:52:53;;;;;;;8.10;2.00;;;7.00;86.30;;;;;;5087346;28;20025;-79
2021/04/10 07:55:48;;;;;;;7.75;1.90;;;7.00;86.20;;;;;;5087766;28;20046;-81
2021/04/10 07:58:25;;;;;;;11.45;2.25;;;6.90;82.00;;;;;;5085186;28;20059;-81
2021/04/10 08:00:54;;;;;;;10.35;2.15;;;6.90;84.10;;;;;;5097128;28;20131;-80
2021/04/10 08:03:27;;;;;;;8.60;1.75;;;6.90;83.30;;;;;;5084231;28;20052;-81
2021/04/10 08:05:53;;;;;;;9.85;1.95;;;7.10;82.50;;;;;;5079693;28;20057;-80
2021/04/10 08:08:44;;;;;;;7.20;1.80;;;7.30;81.90;;;;;;5086797;28;20032;-80
2021/04/10 08:11:10;;;;;;;11.60;1.88;;;7.50;82.00;;;;;;5082677;28;20151;-80
2021/04/10 08:13:36;;;;;;;13.57;2.45;;;7.80;79.80;;;;;;5085277;28;20074;-81
2021/04/10 08:16:16;;;;;;;11.27;1.60;;;7.70;79.00;;;;;;5091903;28;20049;-81
2021/04/10 08:19:00;;;;;;;7.75;1.58;;;7.70;75.10;;;;;;5090319;28;20087;-81
2021/04/10 08:21:34;;;;;;;11.07;2.35;;;7.60;77.10;;;;;;5081916;28;20130;-80
2021/04/10 08:24:03;;;;;;;10.82;1.52;;;7.60;77.50;;;;;;5081565;28;20048;-81
2021/04/10 08:26:29;;;;;;;8.98;2.00;;;7.60;77.70;;;;;;5088185;28;20067;-80
2021/04/10 08:28:56;;;;;;;10.80;2.17;;;7.50;78.30;;;;;;5090482;28;20040;-81
2021/04/10 08:31:21;;;;;;;12.10;1.58;;;7.40;77.40;;;;;;5092142;28;20092;-81
2021/04/10 08:33:47;;;;;;;11.63;1.85;;;7.40;77.50;;;;;;5083621;28;20090;-81
2021/04/10 08:36:16;;;;;;;10.38;1.58;;;7.40;77.80;;;;;;5089487;28;20036;-80
2021/04/10 08:38:42;;;;;;;10.30;1.70;;;7.40;77.50;;;;;;5086591;28;20546;-80
2021/04/10 08:41:12;;;;;;;8.90;1.65;;;7.60;79.30;;;;;;5080595;28;20052;-79
2021/04/10 08:43:44;;;;;;;12.77;2.20;;;7.80;76.70;;;;;;5079890;28;20105;-79
2021/04/10 08:46:11;;;;;;;7.32;1.20;;;8.00;77.40;;;;;;5073527;28;20036;-78
2021/04/10 08:48:37;;;;;;;9.57;1.48;;;8.00;77.30;;;;;;5085611;28;20055;-79
2021/04/10 08:51:07;;;;;;;8.32;1.35;;;8.20;75.00;;;;;;5076805;28;20037;-79
2021/04/10 08:53:39;;;;;;;10.63;1.73;;;8.20;75.10;;;;;;5083250;28;20101;-80
2021/04/10 08:56:09;;;;;;;9.63;1.67;;;8.30;72.50;;;;;;5083112;28;20056;-80
2021/04/10 08:58:35;;;;;;;8.10;1.50;;;8.30;73.60;;;;;;5080245;28;20101;-78
2021/04/10 09:01:07;;;;;;;11.70;2.22;;;8.40;74.90;;;;;;5061682;28;20068;-79
2021/04/10 09:03:45;;;;;;;12.65;2.10;;;8.30;73.00;;;;;;5074987;28;20033;-80
2021/04/10 09:06:12;;;;;;;9.75;1.23;;;8.30;70.30;;;;;;5071712;28;20040;-80
2021/04/10 09:08:38;;;;;;;9.43;1.35;;;8.30;72.70;;;;;;5092088;28;20058;-80
2021/04/10 09:11:05;;;;;;;7.00;1.67;;;8.30;73.10;;;;;;5076319;28;20040;-80
2021/04/10 09:13:48;;;;;;;7.55;1.60;;;8.30;72.60;;;;;;5087792;28;20051;-80
2021/04/10 09:16:28;;;;;;;7.05;1.63;;;8.20;68.70;;;;;;5074794;28;20036;-80
2021/04/10 09:19:03;;;;;;;10.88;1.92;;;8.30;72.60;;;;;;5079108;28;20079;-80
2021/04/10 09:21:44;;;;;;;8.68;1.75;;;8.40;72.10;;;;;;5071554;28;20064;-79
2021/04/10 09:24:18;;;;;;;8.40;1.77;;;8.60;71.60;;;;;;5083107;28;20081;-80
2021/04/10 09:27:19;;;;;;;8.02;1.83;;;8.60;70.60;;;;;;5076218;28;20040;-81
2021/04/10 09:29:51;;;;;;;6.10;1.40;;;8.50;70.90;;;;;;5088398;28;20060;-79
2021/04/10 09:32:33;;;;;;;8.45;1.42;;;8.50;71.00;;;;;;5080257;28;20389;-78
2021/04/10 09:35:14;;;;;;;8.27;1.70;;;8.60;70.20;;;;;;5079756;28;20048;-78
2021/04/10 09:37:40;;;;;;;9.77;1.40;;;8.70;70.80;;;;;;5071523;28;20032;-77
2021/04/10 09:40:17;;;;;;;7.97;1.98;;;8.90;70.40;;;;;;5075164;28;20097;-77
2021/04/10 09:43:13;;;;;;;7.47;1.30;;;9.00;67.10;;;;;;5066894;28;20469;-77
2021/04/10 09:45:39;;;;;;;5.43;1.80;;;8.90;68.40;;;;;;5077927;28;20059;-77
2021/04/10 09:48:06;;;;;;;9.48;1.63;;;8.80;67.50;;;;;;5074604;28;20468;-77
2021/04/10 09:50:36;;;;;;;7.75;1.50;;;8.70;69.10;;;;;;5079452;28;20387;-77
2021/04/10 09:53:05;;;;;;;35.97;8.98;;;8.70;68.60;;;;;;5069068;28;20739;-77
2021/04/10 09:55:40;;;;;;;6.93;1.70;;;8.80;67.70;;;;;;5078620;28;20043;-77
2021/04/10 09:58:07;;;;;;;7.10;1.88;;;8.90;67.50;;;;;;5076024;28;20045;-77
2021/04/10 10:00:37;;;;;;;11.13;1.63;;;9.00;68.00;;;;;;5085230;28;20043;-78
2021/04/10 10:03:05;;;;;;;12.27;3.28;;;9.00;66.70;;;;;;5076541;28;20059;-77
2021/04/10 10:05:34;;;;;;;9.23;1.60;;;8.90;67.30;;;;;;5080572;28;20115;-77
2021/04/10 10:08:11;;;;;;;8.43;1.80;;;8.90;68.20;;;;;;5079596;28;20056;-78
2021/04/10 10:10:46;;;;;;;9.50;1.70;;;9.00;66.40;;;;;;5078098;28;20109;-78
2021/04/10 10:13:17;;;;;;;7.35;1.25;;;9.00;66.90;;;;;;5078988;28;20047;-78
2021/04/10 10:15:44;;;;;;;11.35;2.10;;;9.00;67.40;;;;;;5086566;28;20117;-78
2021/04/10 10:18:37;;;;;;;9.20;1.70;;;9.20;67.80;;;;;;5071346;28;20554;-77
2021/04/10 10:21:13;;;;;;;9.55;1.63;;;9.20;65.00;;;;;;5078932;28;20048;-77
2021/04/10 10:23:41;;;;;;;5.40;1.30;;;9.20;67.30;;;;;;5071247;28;20041;-77
2021/04/10 10:26:19;;;;;;;7.45;1.25;;;9.20;67.90;;;;;;5086103;28;20061;-77
2021/04/10 10:29:00;;;;;;;7.65;1.70;;;9.20;66.60;;;;;;5074893;28;20047;-77
2021/04/10 10:31:28;;;;;;;9.60;1.40;;;9.00;66.60;;;;;;5075147;28;20115;-77
2021/04/10 10:34:02;;;;;;;9.57;1.60;;;9.10;68.30;;;;;;5075100;28;20089;-77
2021/04/10 10:36:35;;;;;;;10.80;1.70;;;9.10;68.00;;;;;;5081880;28;20033;-78
2021/04/10 10:39:02;;;;;;;9.25;1.60;;;9.10;66.40;;;;;;5074414;28;20040;-78
2021/04/10 10:41:28;;;;;;;7.93;1.98;;;9.00;67.00;;;;;;5079879;28;20078;-78
2021/04/10 10:44:01;;;;;;;7.13;1.40;;;9.00;67.40;;;;;;5072569;28;20028;-78
2021/04/10 10:46:26;;;;;;;8.38;1.63;;;9.00;66.40;;;;;;5079005;28;20412;-78
2021/04/10 10:48:52;;;;;;;9.50;1.55;;;9.10;67.40;;;;;;5078415;28;20049;-79
2021/04/10 10:51:21;;;;;;;8.57;1.50;;;9.30;67.50;;;;;;5068968;28;20036;-78
2021/04/10 10:53:55;;;;;;;8.68;1.63;;;9.50;66.30;;;;;;5081942;28;20048;-78
2021/04/10 10:56:28;;;;;;;8.20;1.70;;;9.50;65.40;;;;;;5070663;28;20158;-78
2021/04/10 10:59:02;;;;;;;8.57;1.67;;;9.50;65.80;;;;;;5079231;28;20121;-78
2021/04/10 11:01:31;;;;;;;9.80;2.10;;;9.40;65.00;;;;;;5070604;28;20040;-78
2021/04/10 11:04:18;;;;;;;7.90;1.33;;;9.40;65.90;;;;;;5078905;28;20043;-78
2021/04/10 11:06:49;;;;;;;8.43;1.70;;;9.50;66.30;;;;;;5071579;28;20036;-78
2021/04/10 11:09:24;;;;;;;8.38;1.80;;;9.50;65.70;;;;;;5080019;28;20124;-77
2021/04/10 11:11:54;;;;;;;6.88;1.77;;;9.40;64.90;;;;;;5069523;28;20139;-77
2021/04/10 11:14:24;;;;;;;5.93;1.20;;;9.40;65.70;;;;;;5075704;28;20045;-78
2021/04/10 11:16:51;;;;;;;7.28;1.60;;;9.40;65.10;;;;;;5075240;28;20476;-78
2021/04/10 11:19:32;;;;;;;10.02;1.45;;;9.30;65.20;;;;;;5080074;28;20395;-78
2021/04/10 11:22:01;;;;;;;8.30;1.20;;;9.30;63.70;;;;;;5070662;28;20052;-78
2021/04/10 11:24:49;;;;;;;5.90;1.38;;;9.20;64.80;;;;;;5082546;28;20114;-78
2021/04/10 11:27:22;;;;;;;10.13;1.38;;;9.20;62.10;;;;;;5070527;28;20049;-78
2021/04/10 11:29:56;;;;;;;4.97;1.15;;;9.10;64.60;;;;;;5076520;28;20481;-78
2021/04/10 11:32:45;;;;;;;6.10;1.10;;;9.10;63.80;;;;;;5071741;28;20111;-78
2021/04/10 11:35:18;;;;;;;7.65;1.67;;;9.10;62.20;;;;;;5079651;28;20040;-78
2021/04/10 11:37:46;;;;;;;8.68;1.80;;;9.10;63.30;;;;;;5078599;28;20036;-78
2021/04/10 11:40:28;;;;;;;9.43;1.35;;;9.20;65.40;;;;;;5089549;28;20106;-79
2021/04/10 11:42:56;;;;;;;9.57;1.95;;;9.30;64.30;;;;;;5084847;28;20051;-79
2021/04/10 11:45:26;;;;;;;6.50;1.33;;;9.40;65.30;;;;;;5076067;28;20043;-79
2021/04/10 11:48:21;;;;;;;9.15;2.15;;;9.50;64.20;;;;;;5073497;28;20051;-79
2021/04/10 11:50:49;;;;;;;5.13;1.23;;;9.40;62.40;;;;;;5081240;28;20048;-79
2021/04/10 11:53:25;;;;;;;9.45;1.80;;;9.30;64.40;;;;;;5063489;28;20064;-79
2021/04/10 11:55:53;;;;;;;5.65;1.35;;;9.40;64.00;;;;;;5083478;28;21615;-79
2021/04/10 11:58:29;;;;;;;16.30;9.40;;;9.50;63.80;;;;;;5078767;28;20035;-78
2021/04/10 12:01:11;;;;;;;8.43;2.17;;;9.40;63.30;;;;;;5060794;28;20059;-78
2021/04/10 12:03:55;;;;;;;6.97;1.30;;;9.50;64.80;;;;;;5077956;28;20532;-78
2021/04/10 12:06:38;;;;;;;5.88;1.40;;;9.60;60.60;;;;;;5082854;28;20040;-78
2021/04/10 12:09:09;;;;;;;8.52;1.35;;;9.40;62.90;;;;;;5070473;28;20048;-78
2021/04/10 12:11:36;;;;;;;6.90;1.40;;;9.30;63.30;;;;;;5081799;28;20051;-78
2021/04/10 12:14:06;;;;;;;10.95;1.75;;;9.30;64.40;;;;;;5074536;28;20111;-78
2021/04/10 12:16:34;;;;;;;4.30;1.58;;;9.20;64.90;;;;;;5047652;28;20037;-78
2021/04/10 12:19:00;;;;;;;6.60;1.92;;;9.20;65.00;;;;;;5071496;28;20478;-78
2021/04/10 12:21:26;;;;;;;8.23;2.08;;;9.40;65.40;;;;;;5072614;28;20089;-78
2021/04/10 12:23:52;;;;;;;7.15;1.67;;;9.40;65.00;;;;;;5069092;28;20082;-78
2021/04/10 12:26:19;;;;;;;7.68;1.92;;;9.40;64.90;;;;;;5084508;28;20036;-78
2021/04/10 12:28:45;;;;;;;11.73;2.00;;;9.30;63.90;;;;;;5067174;28;20046;-77
2021/04/10 12:31:11;;;;;;;5.60;1.42;;;9.40;64.90;;;;;;5079153;28;20045;-77
2021/04/10 12:33:41;;;;;;;9.50;1.50;;;9.30;64.50;;;;;;5073889;28;20440;-77
2021/04/10 12:36:08;;;;;;;7.80;1.63;;;9.30;63.80;;;;;;5076405;28;20040;-77
2021/04/10 12:38:37;;;;;;;7.18;1.55;;;9.20;63.50;;;;;;5071964;28;20056;-78
2021/04/10 12:41:04;;;;;;;5.97;1.85;;;9.10;63.50;;;;;;5073732;28;20422;-78
2021/04/10 12:43:30;;;;;;;6.80;1.75;;;9.10;64.30;;;;;;5067988;28;20069;-78
2021/04/10 12:45:56;;;;;;;10.90;1.58;;;9.30;64.10;;;;;;5078192;28;20056;-78
2021/04/10 12:48:22;;;;;;;6.28;1.20;;;9.20;63.70;;;;;;5074149;28;20040;-78
2021/04/10 12:50:47;;;;;;;7.88;1.35;;;9.20;63.20;;;;;;5068351;28;20114;-77
2021/04/10 12:53:13;;;;;;;5.47;1.60;;;9.10;63.40;;;;;;5076915;28;20122;-77
2021/04/10 12:55:39;;;;;;;6.40;1.42;;;9.10;64.20;;;;;;5071634;28;21360;-78
2021/04/10 12:58:05;;;;;;;5.20;1.60;;;9.20;64.10;;;;;;5076458;28;20119;-77
2021/04/10 13:00:31;;;;;;;9.70;2.22;;;9.20;64.00;;;;;;5072601;28;20052;-77
2021/04/10 13:02:56;;;;;;;7.38;1.98;;;9.20;64.20;;;;;;5072090;28;20064;-78